createdAt,value
2023-04-03T00:01:22.811Z,99594.03
2023-04-03T00:03:50.030Z,99590.66
2023-04-03T00:06:17.319Z,99584.88
2023-04-03T00:08:44.593Z,99595.94
2023-04-03T00:11:12.047Z,99588.28
2023-04-03T00:13:40.637Z,99583.63
2023-04-03T00:16:10.479Z,99586.91
2023-04-03T00:18:39.928Z,99594.06
2023-04-03T00:21:08.229Z,99589.81
2023-04-03T00:23:35.680Z,99592.53
2023-04-03T00:26:03.424Z,99586.75
2023-04-03T00:28:30.803Z,99586.78
2023-04-03T00:30:58.403Z,99584.47
2023-04-03T00:33:25.987Z,99596.38
2023-04-03T00:35:53.571Z,99593.84
2023-04-03T00:38:21.366Z,99586.94
2023-04-03T00:40:50.997Z,99591.94
2023-04-03T00:43:27.427Z,99592.16
2023-04-03T00:45:58.344Z,99592.75
2023-04-03T00:48:48.652Z,99591.59
2023-04-03T00:51:25.946Z,99593.63
2023-04-03T00:54:06.440Z,99586.84
2023-04-03T00:56:34.168Z,99588.31
2023-04-03T00:59:26.259Z,99584.41
2023-04-03T01:01:56.589Z,99597.53
2023-04-03T01:04:43.026Z,99592.03
2023-04-03T01:07:23.623Z,99588.50
2023-04-03T01:09:58.617Z,99589.97
2023-04-03T01:12:31.829Z,99582.75
2023-04-03T01:15:09.862Z,99591.28
2023-04-03T01:17:39.877Z,99596.06
2023-04-03T01:20:35.974Z,99588.44
2023-04-03T01:24:09.336Z,99592.78
2023-04-03T01:26:36.704Z,99586.00
2023-04-03T01:29:05.337Z,99590.94
2023-04-03T01:31:57.112Z,99585.06
2023-04-03T01:34:27.302Z,99593.03
2023-04-03T01:36:55.432Z,99592.81
2023-04-03T01:39:24.302Z,99583.56
2023-04-03T01:41:52.870Z,99589.69
2023-04-03T01:44:41.045Z,99583.19
2023-04-03T01:47:08.836Z,99581.94
2023-04-03T01:49:36.886Z,99586.69
2023-04-03T01:52:04.282Z,99587.03
2023-04-03T01:54:31.373Z,99582.00
2023-04-03T01:56:58.576Z,99590.06
2023-04-03T01:59:25.856Z,99586.69
2023-04-03T02:01:53.303Z,99587.88
2023-04-03T02:04:20.587Z,99585.69
2023-04-03T02:06:47.901Z,99588.56
2023-04-03T02:09:15.320Z,99593.69
2023-04-03T02:11:42.428Z,99590.91
2023-04-03T02:14:10.645Z,99599.75
2023-04-03T02:16:37.934Z,99590.72
2023-04-03T02:19:05.258Z,99601.38
2023-04-03T02:21:32.527Z,99595.44
2023-04-03T02:23:59.873Z,99593.91
2023-04-03T02:26:27.554Z,99598.56
2023-04-03T02:28:54.665Z,99593.47
2023-04-03T02:31:22.060Z,99598.50
2023-04-03T02:33:49.426Z,99592.94
2023-04-03T02:36:17.554Z,99603.31
2023-04-03T02:38:50.216Z,99596.13
2023-04-03T02:41:17.596Z,99592.25
2023-04-03T02:43:44.762Z,99601.44
2023-04-03T02:46:12.020Z,99600.00
2023-04-03T02:48:39.222Z,99603.88
2023-04-03T02:51:06.836Z,99593.63
2023-04-03T02:53:34.083Z,99592.53
2023-04-03T02:56:07.740Z,99602.75
2023-04-03T02:58:34.890Z,99605.53
2023-04-03T03:01:04.256Z,99599.56
2023-04-03T03:03:31.459Z,99599.41
2023-04-03T03:06:11.930Z,99600.47
2023-04-03T03:08:42.039Z,99604.72
2023-04-03T03:11:10.542Z,99598.50
2023-04-03T03:13:38.146Z,99605.09
2023-04-03T03:16:06.564Z,99598.38
2023-04-03T03:18:34.782Z,99602.88
2023-04-03T03:21:04.845Z,99601.91
2023-04-03T03:23:33.804Z,99597.84
2023-04-03T03:26:09.518Z,99596.47
2023-04-03T03:28:39.237Z,99591.78
2023-04-03T03:31:08.405Z,99592.72
2023-04-03T03:33:38.338Z,99598.38
2023-04-03T03:36:06.384Z,99599.03
2023-04-03T03:38:33.741Z,99591.78
2023-04-03T03:41:03.233Z,99599.41
2023-04-03T03:43:33.351Z,99588.25
2023-04-03T03:46:01.091Z,99588.81
2023-04-03T03:48:29.136Z,99595.88
2023-04-03T03:50:57.030Z,99584.03
2023-04-03T03:53:28.263Z,99591.19
2023-04-03T03:55:59.812Z,99603.88
2023-04-03T03:58:29.551Z,99600.06
2023-04-03T04:00:56.877Z,99596.81
2023-04-03T04:03:24.239Z,99606.81
2023-04-03T04:05:52.706Z,99601.22
2023-04-03T04:08:20.455Z,99602.75
2023-04-03T04:10:48.156Z,99606.63
2023-04-03T04:13:17.535Z,99604.81
2023-04-03T04:15:45.730Z,99598.44
2023-04-03T04:18:14.054Z,99601.09
2023-04-03T04:20:46.743Z,99608.13
2023-04-03T04:23:15.395Z,99615.31
2023-04-03T04:25:45.965Z,99605.66
2023-04-03T04:28:13.486Z,99607.38
2023-04-03T04:30:46.687Z,99606.38
2023-04-03T04:33:16.173Z,99602.75
2023-04-03T04:35:44.829Z,99601.06
2023-04-03T04:38:13.052Z,99603.56
2023-04-03T04:40:41.707Z,99598.03
2023-04-03T04:43:09.307Z,99596.13
2023-04-03T04:45:37.373Z,99595.19
2023-04-03T04:48:05.686Z,99595.00
2023-04-03T04:50:33.078Z,99600.38
2023-04-03T04:53:00.233Z,99606.22
2023-04-03T04:55:27.786Z,99612.22
2023-04-03T04:57:55.179Z,99607.19
2023-04-03T05:00:23.140Z,99605.13
2023-04-03T05:02:50.556Z,99609.38
2023-04-03T05:05:20.214Z,99610.97
2023-04-03T05:07:47.921Z,99620.59
2023-04-03T05:10:15.838Z,99620.34
2023-04-03T05:12:43.531Z,99619.56
2023-04-03T05:15:11.752Z,99618.22
2023-04-03T05:17:39.362Z,99626.09
2023-04-03T05:20:11.404Z,99622.69
2023-04-03T05:22:39.997Z,99625.81
2023-04-03T05:25:10.673Z,99630.72
2023-04-03T05:27:39.451Z,99624.78
2023-04-03T05:30:08.040Z,99626.41
2023-04-03T05:32:37.141Z,99631.56
2023-04-03T05:35:17.001Z,99627.91
2023-04-03T05:37:46.408Z,99631.63
2023-04-03T05:40:16.894Z,99630.50
2023-04-03T05:42:47.304Z,99636.84
2023-04-03T05:45:16.197Z,99633.91
2023-04-03T05:47:43.581Z,99633.50
2023-04-03T05:50:11.246Z,99638.41
2023-04-03T05:52:45.403Z,99635.84
2023-04-03T05:55:14.412Z,99640.50
2023-04-03T05:57:42.135Z,99640.34
2023-04-03T06:00:16.450Z,99645.81
2023-04-03T06:02:48.893Z,99647.00
2023-04-03T06:05:20.415Z,99646.31
2023-04-03T06:07:47.754Z,99644.38
2023-04-03T06:10:15.828Z,99648.09
2023-04-03T06:12:43.140Z,99654.75
2023-04-03T06:15:11.209Z,99650.41
2023-04-03T06:17:38.803Z,99655.47
2023-04-03T06:20:07.374Z,99657.16
2023-04-03T06:22:34.878Z,99652.66
2023-04-03T06:25:03.353Z,99662.03
2023-04-03T06:27:30.493Z,99657.56
2023-04-03T06:29:57.813Z,99661.09
2023-04-03T06:32:25.029Z,99659.66
2023-04-03T06:34:54.226Z,99660.38
2023-04-03T06:37:26.965Z,99670.53
2023-04-03T06:39:54.156Z,99666.69
2023-04-03T06:42:22.026Z,99669.66
2023-04-03T06:44:58.497Z,99671.56
2023-04-03T06:47:25.760Z,99663.00
2023-04-03T06:49:52.993Z,99670.69
2023-04-03T06:52:20.058Z,99662.78
2023-04-03T06:54:48.291Z,99673.34
2023-04-03T06:57:16.273Z,99659.94
2023-04-03T06:59:43.543Z,99662.63
2023-04-03T07:02:13.927Z,99666.88
2023-04-03T07:04:41.373Z,99669.88
2023-04-03T07:07:08.620Z,99675.69
2023-04-03T07:09:36.054Z,99671.53
2023-04-03T07:12:03.493Z,99679.28
2023-04-03T07:14:31.176Z,99675.66
2023-04-03T07:16:58.402Z,99675.47
2023-04-03T07:19:28.932Z,99684.88
2023-04-03T07:21:56.231Z,99680.81
2023-04-03T07:24:23.979Z,99684.72
2023-04-03T07:26:53.684Z,99686.34
2023-04-03T07:29:22.517Z,99680.34
2023-04-03T07:31:50.276Z,99678.56
2023-04-03T07:34:17.595Z,99682.81
2023-04-03T07:36:44.814Z,99681.66
2023-04-03T07:39:12.127Z,99683.75
2023-04-03T07:41:39.726Z,99685.91
2023-04-03T07:44:07.037Z,99698.47
2023-04-03T07:46:34.408Z,99697.53
2023-04-03T07:49:01.806Z,99700.59
2023-04-03T07:51:30.597Z,99703.56
2023-04-03T07:53:57.755Z,99690.31
2023-04-03T07:56:26.042Z,99696.34
2023-04-03T07:58:53.412Z,99702.66
2023-04-03T08:01:20.783Z,99703.06
2023-04-03T08:03:48.109Z,99699.31
2023-04-03T08:06:29.446Z,99709.47
2023-04-03T08:09:06.218Z,99707.34
2023-04-03T08:11:33.750Z,99708.19
2023-04-03T08:14:01.132Z,99705.88
2023-04-03T08:16:28.481Z,99708.75
2023-04-03T08:18:56.458Z,99705.28
2023-04-03T08:21:23.965Z,99707.41
2023-04-03T08:23:52.076Z,99703.31
2023-04-03T08:26:22.561Z,99716.28
2023-04-03T08:28:50.575Z,99716.09
2023-04-03T08:31:20.984Z,99720.81
2023-04-03T08:33:50.047Z,99721.25
2023-04-03T08:36:37.471Z,99718.78
2023-04-03T08:39:04.795Z,99724.00
2023-04-03T08:41:44.755Z,99712.50
2023-04-03T08:44:32.840Z,99724.31
2023-04-03T08:47:22.091Z,99710.56
2023-04-03T08:50:04.049Z,99716.88
2023-04-03T08:52:49.996Z,99717.84
2023-04-03T08:55:49.310Z,99722.50
2023-04-03T08:58:25.836Z,99718.63
2023-04-03T09:01:22.532Z,99718.19
2023-04-03T09:03:49.880Z,99712.22
2023-04-03T09:06:23.227Z,99717.63
2023-04-03T09:09:31.207Z,99725.50
2023-04-03T09:12:31.350Z,99728.66
2023-04-03T09:15:35.569Z,99736.59
2023-04-03T09:18:34.094Z,99728.88
2023-04-03T09:21:22.152Z,99726.38
2023-04-03T09:23:58.624Z,99723.06
2023-04-03T09:26:44.589Z,99723.88
2023-04-03T09:29:22.969Z,99728.75
2023-04-03T09:32:03.596Z,99724.09
2023-04-03T09:34:38.379Z,99718.81
2023-04-03T09:37:07.165Z,99722.13
2023-04-03T09:39:57.037Z,99725.84
2023-04-03T09:42:26.769Z,99728.25
2023-04-03T09:45:06.494Z,99724.50
2023-04-03T09:47:37.553Z,99720.97
2023-04-03T09:50:22.870Z,99716.88
2023-04-03T09:52:52.761Z,99716.28
2023-04-03T09:55:30.387Z,99718.81
2023-04-03T09:58:02.621Z,99732.78
2023-04-03T10:00:39.002Z,99723.50
2023-04-03T10:03:40.255Z,99723.47
2023-04-03T10:06:25.824Z,99728.25
2023-04-03T10:09:32.040Z,99740.69
2023-04-03T10:12:06.430Z,99712.50
2023-04-03T10:15:03.995Z,99720.94
2023-04-03T10:18:17.894Z,99723.47
2023-04-03T10:20:55.349Z,99714.16
2023-04-03T10:23:39.282Z,99709.69
2023-04-03T10:26:50.315Z,99709.06
2023-04-03T10:29:56.691Z,99711.63
2023-04-03T10:33:07.322Z,99710.16
2023-04-03T10:35:54.921Z,99716.56
2023-04-03T10:38:38.676Z,99715.22
2023-04-03T10:41:33.996Z,99704.25
2023-04-03T10:44:48.811Z,99706.72
2023-04-03T10:48:08.121Z,99711.97
2023-04-03T10:51:02.734Z,99715.91
2023-04-03T10:53:51.231Z,99713.16
2023-04-03T10:56:39.937Z,99708.06
2023-04-03T10:59:37.746Z,99706.03
2023-04-03T11:02:39.445Z,99705.44
2023-04-03T11:05:23.982Z,99709.41
2023-04-03T11:07:54.585Z,99698.66
2023-04-03T11:10:43.768Z,99697.66
2023-04-03T11:13:43.582Z,99706.19
2023-04-03T11:16:26.770Z,99704.44
2023-04-03T11:19:47.174Z,99703.25
2023-04-03T11:22:46.325Z,99696.41
2023-04-03T11:25:13.431Z,99692.56
2023-04-03T11:28:05.988Z,99708.16
2023-04-03T11:31:23.571Z,99691.66
2023-04-03T11:34:14.659Z,99695.25
2023-04-03T11:36:53.738Z,99685.69
2023-04-03T11:39:30.240Z,99680.91
2023-04-03T11:42:38.355Z,99683.13
2023-04-03T11:46:00.364Z,99689.03
2023-04-03T11:48:32.609Z,99688.69
2023-04-03T11:51:17.207Z,99685.91
2023-04-03T11:53:45.822Z,99685.78
2023-04-03T11:56:25.478Z,99687.53
2023-04-03T11:59:11.324Z,99673.72
2023-04-03T12:02:02.076Z,99670.06
2023-04-03T12:04:31.335Z,99675.94
2023-04-03T12:07:19.929Z,99675.03
2023-04-03T12:09:47.590Z,99674.25
2023-04-03T12:12:36.167Z,99680.13
2023-04-03T12:15:50.995Z,99668.44
2023-04-03T12:18:50.473Z,99665.34
2023-04-03T12:21:28.304Z,99663.88
2023-04-03T12:24:13.433Z,99670.06
2023-04-03T12:27:01.685Z,99654.47
2023-04-03T12:29:33.949Z,99655.94
2023-04-03T12:32:22.598Z,99651.75
2023-04-03T12:35:11.475Z,99648.97
2023-04-03T12:38:26.300Z,99654.22
2023-04-03T12:41:14.492Z,99636.63
2023-04-03T12:44:11.901Z,99643.09
2023-04-03T12:46:52.800Z,99650.63
2023-04-03T12:49:41.308Z,99647.25
2023-04-03T12:52:36.693Z,99647.59
2023-04-03T12:55:10.959Z,99644.41
2023-04-03T12:57:38.218Z,99636.56
2023-04-03T13:00:36.590Z,99637.00
2023-04-03T13:03:06.646Z,99633.34
2023-04-03T13:05:37.247Z,99632.22
2023-04-03T13:08:15.318Z,99632.81
2023-04-03T13:11:00.528Z,99635.09
2023-04-03T13:13:28.164Z,99629.19
2023-04-03T13:15:57.230Z,99630.78
2023-04-03T13:18:35.358Z,99627.91
2023-04-03T13:21:25.969Z,99629.28
2023-04-03T13:24:13.732Z,99623.16
2023-04-03T13:26:43.890Z,99635.31
2023-04-03T13:29:41.344Z,99628.38
2023-04-03T13:32:26.318Z,99647.53
2023-04-03T13:34:54.161Z,99621.88
2023-04-03T13:37:30.097Z,99625.84
2023-04-03T13:40:08.306Z,99632.91
2023-04-03T13:42:42.260Z,99624.72
2023-04-03T13:45:30.026Z,99620.25
2023-04-03T13:48:23.803Z,99612.66
2023-04-03T13:51:06.122Z,99621.38
2023-04-03T13:53:51.717Z,99612.59
2023-04-03T13:56:58.057Z,99625.34
2023-04-03T13:59:36.720Z,99621.19
2023-04-03T14:02:04.034Z,99618.38
2023-04-03T14:04:47.127Z,99626.41
2023-04-03T14:07:19.089Z,99627.06
2023-04-03T14:09:46.739Z,99627.25
2023-04-03T14:12:35.232Z,99627.44
2023-04-03T14:15:12.383Z,99613.09
2023-04-03T14:17:39.646Z,99612.81
2023-04-03T14:20:08.342Z,99617.19
2023-04-03T14:22:35.843Z,99616.69
2023-04-03T14:25:04.527Z,99610.91
2023-04-03T14:27:40.621Z,99599.69
2023-04-03T14:30:17.742Z,99592.94
2023-04-03T14:32:45.928Z,99597.34
2023-04-03T14:35:14.142Z,99597.94
2023-04-03T14:37:41.786Z,99594.91
2023-04-03T14:40:18.622Z,99598.59
2023-04-03T14:42:48.397Z,99596.16
2023-04-03T14:45:16.668Z,99596.00
2023-04-03T14:47:52.871Z,99596.16
2023-04-03T14:50:27.549Z,99590.81
2023-04-03T14:52:59.934Z,99592.56
2023-04-03T14:55:28.692Z,99594.72
2023-04-03T14:57:56.480Z,99602.13
2023-04-03T15:00:24.331Z,99593.88
2023-04-03T15:02:52.344Z,99589.53
2023-04-03T15:05:20.826Z,99585.56
2023-04-03T15:08:01.491Z,99593.50
2023-04-03T15:10:32.081Z,99598.66
2023-04-03T15:12:59.986Z,99591.06
2023-04-03T15:15:31.284Z,99594.81
2023-04-03T15:18:00.201Z,99588.31
2023-04-03T15:20:31.915Z,99594.69
2023-04-03T15:23:02.136Z,99591.75
2023-04-03T15:25:30.400Z,99595.56
2023-04-03T15:27:58.434Z,99596.81
2023-04-03T15:30:25.963Z,99594.13
2023-04-03T15:32:54.374Z,99586.78
2023-04-03T15:35:22.063Z,99587.44
2023-04-03T15:37:49.493Z,99589.38
2023-04-03T15:40:18.284Z,99598.28
2023-04-03T15:42:45.764Z,99604.19
2023-04-03T15:45:13.181Z,99595.09
2023-04-03T15:47:40.683Z,99597.38
2023-04-03T15:50:09.057Z,99587.94
2023-04-03T15:52:37.029Z,99582.56
2023-04-03T15:55:06.196Z,99589.66
2023-04-03T16:00:08.058Z,99582.22
2023-04-03T16:02:36.108Z,99592.88
2023-04-03T16:05:28.762Z,99590.59
2023-04-03T16:07:56.221Z,99592.06
2023-04-03T16:10:23.936Z,99588.13
2023-04-03T16:12:51.355Z,99591.91
2023-04-03T16:15:22.783Z,99586.22
2023-04-03T16:17:50.469Z,99589.25
2023-04-03T16:20:19.658Z,99591.03
2023-04-03T16:22:47.181Z,99589.44
2023-04-03T16:25:14.443Z,99595.69
2023-04-03T16:27:41.930Z,99588.16
2023-04-03T16:30:10.498Z,99589.47
2023-04-03T16:32:40.487Z,99591.91
2023-04-03T16:35:08.393Z,99603.16
2023-04-03T16:37:35.585Z,99592.94
2023-04-03T16:40:03.857Z,99594.66
2023-04-03T16:42:31.037Z,99600.53
2023-04-03T16:44:59.726Z,99587.75
2023-04-03T16:47:27.237Z,99597.34
2023-04-03T16:49:54.523Z,99606.75
2023-04-03T16:52:21.751Z,99598.13
2023-04-03T16:54:52.706Z,99601.91
2023-04-03T16:57:21.523Z,99596.09
2023-04-03T16:59:48.778Z,99602.25
2023-04-03T17:02:16.118Z,99601.38
2023-04-03T17:04:43.566Z,99599.78
2023-04-03T17:07:11.126Z,99604.03
2023-04-03T17:09:39.113Z,99609.38
2023-04-03T17:12:06.354Z,99606.59
2023-04-03T17:14:33.555Z,99608.03
2023-04-03T17:17:01.105Z,99610.56
2023-04-03T17:19:29.778Z,99606.25
2023-04-03T17:21:59.283Z,99604.31
2023-04-03T17:24:28.438Z,99609.84
2023-04-03T17:26:55.993Z,99609.88
2023-04-03T17:29:23.360Z,99602.44
2023-04-03T17:31:50.930Z,99598.66
2023-04-03T17:34:18.581Z,99610.91
2023-04-03T17:36:46.331Z,99605.00
2023-04-03T17:39:13.628Z,99598.13
2023-04-03T17:41:43.809Z,99600.72
2023-04-03T17:44:13.473Z,99598.75
2023-04-03T17:46:43.279Z,99602.41
2023-04-03T17:49:15.089Z,99604.34
2023-04-03T17:51:42.755Z,99603.09
2023-04-03T17:54:12.871Z,99596.97
2023-04-03T17:56:40.310Z,99605.19
2023-04-03T17:59:07.747Z,99602.38
2023-04-03T18:01:36.837Z,99608.13
2023-04-03T18:04:06.379Z,99605.56
2023-04-03T18:06:48.920Z,99603.53
2023-04-03T18:09:27.044Z,99609.28
2023-04-03T18:11:57.007Z,99609.03
2023-04-03T18:14:27.754Z,99610.72
2023-04-03T18:16:58.825Z,99615.84
2023-04-03T18:19:29.191Z,99614.63
2023-04-03T18:22:03.916Z,99607.38
2023-04-03T18:24:34.349Z,99616.72
2023-04-03T18:27:22.152Z,99612.22
2023-04-03T18:30:03.210Z,99614.16
2023-04-03T18:32:30.781Z,99617.44
2023-04-03T18:34:59.491Z,99616.22
2023-04-03T18:37:28.151Z,99614.81
2023-04-03T18:39:55.443Z,99622.66
2023-04-03T18:42:26.388Z,99625.03
2023-04-03T18:45:04.825Z,99622.09
2023-04-03T18:47:33.686Z,99625.44
2023-04-03T18:50:00.927Z,99624.69
2023-04-03T18:52:28.420Z,99625.31
2023-04-03T18:54:56.875Z,99637.88
2023-04-03T18:57:26.374Z,99635.34
2023-04-03T18:59:53.771Z,99630.41
2023-04-03T19:02:22.804Z,99634.50
2023-04-03T19:04:52.559Z,99630.22
2023-04-03T19:07:20.780Z,99630.31
2023-04-03T19:09:48.129Z,99631.13
2023-04-03T19:12:16.216Z,99630.38
2023-04-03T19:14:43.510Z,99629.28
2023-04-03T19:17:10.709Z,99627.06
2023-04-03T19:19:38.228Z,99638.41
2023-04-03T19:22:07.594Z,99631.22
2023-04-03T19:24:35.622Z,99634.31
2023-04-03T19:27:03.417Z,99636.13
2023-04-03T19:29:30.652Z,99639.28
2023-04-03T19:31:58.004Z,99635.84
2023-04-03T19:34:25.455Z,99628.06
2023-04-03T19:36:52.806Z,99630.41
2023-04-03T19:39:20.356Z,99628.31
2023-04-03T19:41:47.876Z,99627.06
2023-04-03T19:44:15.488Z,99627.31
2023-04-03T19:46:51.306Z,99636.16
2023-04-03T19:49:20.016Z,99633.41
2023-04-03T19:51:47.473Z,99618.03
2023-04-03T19:54:14.726Z,99634.59
2023-04-03T19:56:42.528Z,99619.56
2023-04-03T19:59:10.677Z,99635.38
2023-04-03T20:01:38.997Z,99637.28
2023-04-03T20:04:06.623Z,99633.44
2023-04-03T20:06:34.760Z,99642.09
2023-04-03T20:09:02.095Z,99633.38
2023-04-03T20:11:35.710Z,99640.88
2023-04-03T20:14:07.170Z,99636.94
2023-04-03T20:16:34.477Z,99625.84
2023-04-03T20:19:02.450Z,99629.81
2023-04-03T20:21:33.052Z,99639.38
2023-04-03T20:24:03.622Z,99644.16
2023-04-03T20:26:33.599Z,99634.16
2023-04-03T20:29:02.641Z,99636.19
2023-04-03T20:31:32.575Z,99634.53
2023-04-03T20:33:59.723Z,99635.69
2023-04-03T20:36:31.321Z,99631.25
2023-04-03T20:38:59.277Z,99629.53
2023-04-03T20:41:27.109Z,99633.34
2023-04-03T20:43:54.430Z,99633.59
2023-04-03T20:46:25.463Z,99642.66
2023-04-03T20:48:53.156Z,99638.44
2023-04-03T20:51:21.641Z,99630.22
2023-04-03T20:53:49.336Z,99627.66
2023-04-03T20:56:17.109Z,99625.56
2023-04-03T20:58:46.762Z,99634.09
2023-04-03T21:01:21.620Z,99632.09
2023-04-03T21:03:52.431Z,99645.03
2023-04-03T21:07:34.775Z,99637.63
2023-04-03T21:11:17.535Z,99636.66
2023-04-03T21:15:00.207Z,99633.59
2023-04-03T21:17:27.992Z,99642.81
2023-04-03T21:19:55.227Z,99640.63
2023-04-03T21:22:22.521Z,99637.16
2023-04-03T21:24:49.636Z,99637.59
2023-04-03T21:27:17.050Z,99637.22
2023-04-03T21:29:44.882Z,99640.94
2023-04-03T21:32:12.302Z,99644.25
2023-04-03T21:34:39.632Z,99636.91
2023-04-03T21:37:08.981Z,99637.22
2023-04-03T21:39:36.562Z,99637.88
2023-04-03T21:42:03.937Z,99641.03
2023-04-03T21:44:31.046Z,99636.00
2023-04-03T21:46:58.573Z,99643.94
2023-04-03T21:49:27.092Z,99637.41
2023-04-03T21:51:54.317Z,99642.09
2023-04-03T21:54:21.492Z,99631.19
2023-04-03T21:56:49.379Z,99635.88
2023-04-03T21:59:16.860Z,99634.97
2023-04-03T22:01:44.474Z,99641.94
2023-04-03T22:04:12.676Z,99628.63
2023-04-03T22:06:40.172Z,99633.94
2023-04-03T22:09:07.740Z,99635.66
2023-04-03T22:11:35.039Z,99642.28
2023-04-03T22:14:02.548Z,99642.59
2023-04-03T22:16:30.607Z,99644.88
2023-04-03T22:19:01.438Z,99646.25
2023-04-03T22:21:28.633Z,99640.91
2023-04-03T22:23:55.942Z,99635.38
2023-04-03T22:26:23.236Z,99645.59
2023-04-03T22:28:55.961Z,99635.13
2023-04-03T22:31:24.657Z,99641.13
2023-04-03T22:33:52.239Z,99637.84
2023-04-03T22:36:19.575Z,99641.81
2023-04-03T22:38:47.246Z,99646.47
2023-04-03T22:41:14.712Z,99653.31
2023-04-03T22:43:42.512Z,99643.66
2023-04-03T22:46:10.517Z,99651.50
2023-04-03T22:48:42.294Z,99659.00
2023-04-03T22:51:09.856Z,99652.41
2023-04-03T22:53:38.284Z,99654.34
2023-04-03T22:56:13.907Z,99656.50
2023-04-03T22:58:41.205Z,99650.06
2023-04-03T23:01:14.733Z,99655.38
2023-04-03T23:03:42.822Z,99646.63
2023-04-03T23:06:11.098Z,99658.00
2023-04-03T23:08:39.024Z,99662.38
2023-04-03T23:11:07.290Z,99657.22
2023-04-03T23:13:35.051Z,99654.81
2023-04-03T23:16:04.729Z,99651.44
2023-04-03T23:18:33.434Z,99658.34
2023-04-03T23:21:04.489Z,99667.56
2023-04-03T23:23:32.615Z,99665.66
2023-04-03T23:26:02.120Z,99663.50
2023-04-03T23:28:30.472Z,99672.69
2023-04-03T23:31:01.630Z,99676.66
2023-04-03T23:33:31.991Z,99666.34
2023-04-03T23:36:01.317Z,99673.22
2023-04-03T23:38:29.559Z,99674.81
2023-04-03T23:40:57.111Z,99676.41
2023-04-03T23:43:24.383Z,99679.41
2023-04-03T23:45:51.706Z,99670.78
2023-04-03T23:48:19.877Z,99670.16
2023-04-03T23:50:46.969Z,99668.75
2023-04-03T23:53:14.167Z,99663.53
2023-04-03T23:55:42.119Z,99668.38
2023-04-03T23:58:10.934Z,99663.88
